Morland, Kansas
Current Conditions -  °F | °C
As of 6:53 PM on Thursday 18 Dec 2014 (Local Time) from KHLC Reporting Station
Overcast Overcast  
Wind Chill: 32°   Ceiling: 1100
Heat Index: 32°   Visibility: 10mi
Dew Point: 28°   Wind: 0mph
Humidity: 85%   Direction: NA
Pressure: 30.16"   Gusts: NA
Location:  39.35°N, 100.08°W
Report Text: KHLC 190053Z AUTO 00000KT 10SM OVC011 00/M02 A3016 RMK AO2 SLP234 T00001022
Loading
Personal Weather Stations






























Interactive Weather Map New forecast layout! Learn more

10-Day Weather Forecast

Advertisements
Track Severe Weather on mobile